KMGJ/MGJ METAR and TAF weather

Enter ICAO airport designator
Station Type Date Time Source
KMGJ METAR 2020/09/30 14:26 UTC NOAA

KMGJ 301426Z AUTO 27009G20KT 10SM FEW025 BKN032 17/11 A2967 RMK AO2 T01670111


Station Type Date Time Source
KMGJ Decoded METAR 2020/09/30 14:26 UTC NOAA

MONTGOMERY ORANGE CO AIRPORT, NY, United States (KMGJ) 41-31N 074-16W 108M
Sep 30, 2020 - 10:26 AM EDT / 2020.09.30 1426 UTC
Wind: from the W (270 degrees) at 10 MPH (9 KT) gusting to 23 MPH (20 KT):0
Visibility: 10 mile(s):0
Sky conditions: mostly cloudy
Temperature: 62.1 F (16.7 C)
Dew Point: 52.0 F (11.1 C)
Relative Humidity: 69%
Pressure (altimeter): 29.67 in. Hg (1004 hPa)
ob: KMGJ 301426Z AUTO 27009G20KT 10SM FEW025 BKN032 17/11 A2967 RMK AO2 T01670111
cycle: 14

Station Type Date Time Source
KMGJ TAF UTC NOAA

Error!

Example: see airport list